Weather at Bulgunnia Airport

Public forecast

Using degrees Celsius for public forecast. Weather courtesy of forecast.io.

Closest aviation weather report (METAR) to Bulgunnia Airport

Closest report is Coober Pedy Airport, 69.5 nm (128.7 km) N. Retrieved 2021/06/12 17:00 UTC (47 minutes ago):

YCBP 121700Z AUTO 02013KT 9999 // NCD 13/01 Q1014

Closest aviation forecast (TAF) to Bulgunnia Airport

Forecast is more than 12 hours old.

Closest forecast is Woomera Airfield, 114.3 nm (211.8 km) ESE. Retrieved 2021-06-12 00:00 UTC (18 hours ago):

TAF YPWR 112314Z 1200/1218 01008KT CAVOK FM120100 36013KT CAVOK FM120700 02010KT 9999 -SHRA NSC